sensor_id;sensor_type;location;lat;lon;timestamp;pressure;altitude;pressure_sealevel;temperature;humidity
61618;BME280;47518;51.776;9.370;2023-05-20T00:00:29;101059.16;;;9.77;77.38
61618;BME280;47518;51.776;9.370;2023-05-20T00:02:55;101060.19;;;9.76;76.46
61618;BME280;47518;51.776;9.370;2023-05-20T00:05:22;101060.94;;;9.68;76.44
61618;BME280;47518;51.776;9.370;2023-05-20T00:07:47;101060.13;;;9.58;77.56
61618;BME280;47518;51.776;9.370;2023-05-20T00:10:13;101061.47;;;9.72;77.27
61618;BME280;47518;51.776;9.370;2023-05-20T00:12:38;101053.38;;;9.89;76.62
61618;BME280;47518;51.776;9.370;2023-05-20T00:15:04;101058.09;;;10.05;75.28
61618;BME280;47518;51.776;9.370;2023-05-20T00:17:30;101061.13;;;9.84;76.53
61618;BME280;47518;51.776;9.370;2023-05-20T00:19:55;101051.66;;;9.88;76.29
61618;BME280;47518;51.776;9.370;2023-05-20T00:22:21;101051.50;;;9.90;74.81
61618;BME280;47518;51.776;9.370;2023-05-20T00:24:46;101051.41;;;9.82;75.62
61618;BME280;47518;51.776;9.370;2023-05-20T00:27:11;101055.66;;;9.67;76.78
61618;BME280;47518;51.776;9.370;2023-05-20T00:29:37;101051.72;;;9.61;76.58
61618;BME280;47518;51.776;9.370;2023-05-20T00:32:02;101050.34;;;9.75;77.12
61618;BME280;47518;51.776;9.370;2023-05-20T00:34:28;101047.78;;;9.73;76.63
61618;BME280;47518;51.776;9.370;2023-05-20T00:36:53;101047.56;;;9.84;77.30
61618;BME280;47518;51.776;9.370;2023-05-20T00:39:19;101051.44;;;10.00;76.32
61618;BME280;47518;51.776;9.370;2023-05-20T00:41:45;101043.56;;;9.79;76.93
61618;BME280;47518;51.776;9.370;2023-05-20T00:44:13;101036.81;;;9.83;76.30
61618;BME280;47518;51.776;9.370;2023-05-20T00:46:38;101045.06;;;9.73;77.98
61618;BME280;47518;51.776;9.370;2023-05-20T00:49:04;101042.03;;;9.76;76.39
61618;BME280;47518;51.776;9.370;2023-05-20T00:51:29;101036.06;;;9.73;77.92
61618;BME280;47518;51.776;9.370;2023-05-20T00:53:55;101033.94;;;9.67;77.88
61618;BME280;47518;51.776;9.370;2023-05-20T00:56:21;101030.84;;;9.79;79.04
61618;BME280;47518;51.776;9.370;2023-05-20T00:58:48;101038.78;;;9.90;76.47
61618;BME280;47518;51.776;9.370;2023-05-20T01:01:13;101023.63;;;9.70;77.02
61618;BME280;47518;51.776;9.370;2023-05-20T01:03:39;101031.75;;;9.70;78.14
61618;BME280;47518;51.776;9.370;2023-05-20T01:06:05;101025.72;;;9.94;77.10
61618;BME280;47518;51.776;9.370;2023-05-20T01:08:30;101025.50;;;9.87;76.94
61618;BME280;47518;51.776;9.370;2023-05-20T01:11:02;101025.47;;;9.70;77.61
61618;BME280;47518;51.776;9.370;2023-05-20T01:13:37;101038.84;;;9.63;77.18
61618;BME280;47518;51.776;9.370;2023-05-20T01:16:04;101037.47;;;9.22;78.38
61618;BME280;47518;51.776;9.370;2023-05-20T01:18:30;101044.06;;;8.92;79.10
61618;BME280;47518;51.776;9.370;2023-05-20T01:20:58;101035.13;;;8.72;79.62
61618;BME280;47518;51.776;9.370;2023-05-20T01:23:42;101044.41;;;8.60;80.31
61618;BME280;47518;51.776;9.370;2023-05-20T01:26:08;101038.19;;;8.87;80.12
61618;BME280;47518;51.776;9.370;2023-05-20T01:28:35;101034.25;;;9.09;81.23
61618;BME280;47518;51.776;9.370;2023-05-20T01:31:04;101038.25;;;9.42;80.90
61618;BME280;47518;51.776;9.370;2023-05-20T01:33:34;101027.03;;;9.72;79.60
61618;BME280;47518;51.776;9.370;2023-05-20T01:36:00;101023.97;;;9.85;77.27
61618;BME280;47518;51.776;9.370;2023-05-20T01:38:26;101019.53;;;10.02;76.92
61618;BME280;47518;51.776;9.370;2023-05-20T01:40:53;101022.31;;;9.74;76.29
61618;BME280;47518;51.776;9.370;2023-05-20T01:43:20;101024.25;;;9.36;77.36
61618;BME280;47518;51.776;9.370;2023-05-20T01:45:45;101022.72;;;9.34;77.43
61618;BME280;47518;51.776;9.370;2023-05-20T01:48:11;101019.97;;;9.16;80.20
61618;BME280;47518;51.776;9.370;2023-05-20T01:50:37;101023.19;;;9.29;80.24
61618;BME280;47518;51.776;9.370;2023-05-20T01:53:02;101021.91;;;9.24;80.13
61618;BME280;47518;51.776;9.370;2023-05-20T01:55:28;101016.53;;;9.42;79.87
61618;BME280;47518;51.776;9.370;2023-05-20T01:57:53;101021.16;;;9.31;79.74
61618;BME280;47518;51.776;9.370;2023-05-20T02:00:19;101030.34;;;9.48;79.28
61618;BME280;47518;51.776;9.370;2023-05-20T02:02:44;101024.31;;;9.54;79.32
61618;BME280;47518;51.776;9.370;2023-05-20T02:05:10;101020.75;;;9.54;78.84
61618;BME280;47518;51.776;9.370;2023-05-20T02:07:35;101018.19;;;9.52;78.76
61618;BME280;47518;51.776;9.370;2023-05-20T02:10:00;101023.47;;;9.54;79.13
61618;BME280;47518;51.776;9.370;2023-05-20T02:12:25;101015.78;;;9.67;77.81
61618;BME280;47518;51.776;9.370;2023-05-20T02:14:51;101010.03;;;9.52;78.18
61618;BME280;47518;51.776;9.370;2023-05-20T02:17:16;101006.53;;;9.42;78.89
61618;BME280;47518;51.776;9.370;2023-05-20T02:19:43;101012.75;;;9.52;78.97
61618;BME280;47518;51.776;9.370;2023-05-20T02:22:08;101007.81;;;9.65;79.08
61618;BME280;47518;51.776;9.370;2023-05-20T02:24:34;101014.34;;;9.73;79.37
61618;BME280;47518;51.776;9.370;2023-05-20T02:26:59;101004.94;;;9.67;78.62
61618;BME280;47518;51.776;9.370;2023-05-20T02:29:25;100999.88;;;9.72;78.05
61618;BME280;47518;51.776;9.370;2023-05-20T02:31:51;101001.03;;;9.70;78.77
61618;BME280;47518;51.776;9.370;2023-05-20T02:34:16;101002.78;;;9.88;77.76
61618;BME280;47518;51.776;9.370;2023-05-20T02:36:42;100994.22;;;9.83;78.15
61618;BME280;47518;51.776;9.370;2023-05-20T02:39:08;100986.06;;;9.83;78.30
61618;BME280;47518;51.776;9.370;2023-05-20T02:41:33;100980.47;;;10.03;78.04
61618;BME280;47518;51.776;9.370;2023-05-20T02:43:58;100978.41;;;9.97;78.60
61618;BME280;47518;51.776;9.370;2023-05-20T02:46:23;100983.00;;;9.96;77.92
61618;BME280;47518;51.776;9.370;2023-05-20T02:48:49;100992.81;;;10.15;78.07
61618;BME280;47518;51.776;9.370;2023-05-20T02:51:14;100995.41;;;9.99;78.17
61618;BME280;47518;51.776;9.370;2023-05-20T02:53:39;100996.94;;;10.01;78.12
61618;BME280;47518;51.776;9.370;2023-05-20T02:56:05;100997.88;;;10.10;77.69
61618;BME280;47518;51.776;9.370;2023-05-20T02:58:32;100987.22;;;10.16;77.07
61618;BME280;47518;51.776;9.370;2023-05-20T03:01:00;100988.28;;;10.41;76.15
61618;BME280;47518;51.776;9.370;2023-05-20T03:03:25;100991.81;;;10.60;76.35
61618;BME280;47518;51.776;9.370;2023-05-20T03:05:51;100989.03;;;10.51;76.39
61618;BME280;47518;51.776;9.370;2023-05-20T03:08:19;100989.34;;;10.74;75.17
61618;BME280;47518;51.776;9.370;2023-05-20T03:10:44;100979.44;;;10.99;73.90
61618;BME280;47518;51.776;9.370;2023-05-20T03:13:09;100980.00;;;11.11;73.64
61618;BME280;47518;51.776;9.370;2023-05-20T03:15:37;100984.81;;;11.17;74.42
61618;BME280;47518;51.776;9.370;2023-05-20T03:18:04;100973.44;;;11.30;73.20
61618;BME280;47518;51.776;9.370;2023-05-20T03:20:30;100981.69;;;11.54;72.49
61618;BME280;47518;51.776;9.370;2023-05-20T03:22:57;100981.72;;;11.79;71.47
61618;BME280;47518;51.776;9.370;2023-05-20T03:25:23;100985.81;;;11.75;70.91
61618;BME280;47518;51.776;9.370;2023-05-20T03:27:48;100985.19;;;11.97;70.52
61618;BME280;47518;51.776;9.370;2023-05-20T03:30:14;100985.34;;;12.04;70.76
61618;BME280;47518;51.776;9.370;2023-05-20T03:32:39;100983.31;;;12.14;70.16
61618;BME280;47518;51.776;9.370;2023-05-20T03:35:07;100979.06;;;12.27;68.91
61618;BME280;47518;51.776;9.370;2023-05-20T03:37:34;100979.03;;;12.44;68.27
61618;BME280;47518;51.776;9.370;2023-05-20T03:39:59;100975.63;;;12.42;67.67
61618;BME280;47518;51.776;9.370;2023-05-20T03:42:25;100973.41;;;12.53;67.13
61618;BME280;47518;51.776;9.370;2023-05-20T03:44:50;100976.44;;;12.59;66.84
61618;BME280;47518;51.776;9.370;2023-05-20T03:47:15;100976.13;;;12.53;67.06
61618;BME280;47518;51.776;9.370;2023-05-20T03:49:41;100978.84;;;12.53;66.57
61618;BME280;47518;51.776;9.370;2023-05-20T03:52:07;100972.88;;;12.58;66.73
61618;BME280;47518;51.776;9.370;2023-05-20T03:54:35;100969.66;;;12.63;66.41
61618;BME280;47518;51.776;9.370;2023-05-20T03:57:02;100971.34;;;12.55;66.53
61618;BME280;47518;51.776;9.370;2023-05-20T03:59:28;100970.84;;;12.52;66.98
61618;BME280;47518;51.776;9.370;2023-05-20T04:01:53;100981.59;;;12.53;66.92
61618;BME280;47518;51.776;9.370;2023-05-20T04:04:19;100973.22;;;12.55;66.84
61618;BME280;47518;51.776;9.370;2023-05-20T04:06:44;100972.31;;;12.71;65.92
61618;BME280;47518;51.776;9.370;2023-05-20T04:09:10;100973.84;;;12.73;66.22
61618;BME280;47518;51.776;9.370;2023-05-20T04:11:36;100974.25;;;12.62;66.67
61618;BME280;47518;51.776;9.370;2023-05-20T04:14:01;100978.69;;;12.63;67.00
61618;BME280;47518;51.776;9.370;2023-05-20T04:16:26;100974.56;;;12.75;66.54
61618;BME280;47518;51.776;9.370;2023-05-20T04:18:54;100971.47;;;12.70;66.81
61618;BME280;47518;51.776;9.370;2023-05-20T04:21:20;100978.31;;;12.66;67.06
61618;BME280;47518;51.776;9.370;2023-05-20T04:23:46;100976.56;;;12.73;66.83
61618;BME280;47518;51.776;9.370;2023-05-20T04:26:11;100973.34;;;12.70;66.95
61618;BME280;47518;51.776;9.370;2023-05-20T04:28:37;100972.88;;;12.66;66.99
61618;BME280;47518;51.776;9.370;2023-05-20T04:31:03;100981.03;;;12.66;66.71
61618;BME280;47518;51.776;9.370;2023-05-20T04:33:29;100975.78;;;12.56;67.43
61618;BME280;47518;51.776;9.370;2023-05-20T04:35:54;100965.72;;;12.65;66.74
61618;BME280;47518;51.776;9.370;2023-05-20T04:38:24;100969.78;;;12.69;67.29
61618;BME280;47518;51.776;9.370;2023-05-20T04:40:57;100967.41;;;12.66;66.94
61618;BME280;47518;51.776;9.370;2023-05-20T04:43:23;100975.59;;;12.74;66.99
61618;BME280;47518;51.776;9.370;2023-05-20T04:45:50;100974.69;;;12.82;66.57
61618;BME280;47518;51.776;9.370;2023-05-20T04:48:17;100968.03;;;12.84;66.77
61618;BME280;47518;51.776;9.370;2023-05-20T04:50:42;100959.34;;;12.81;66.80
61618;BME280;47518;51.776;9.370;2023-05-20T04:53:08;100968.00;;;12.93;66.28
61618;BME280;47518;51.776;9.370;2023-05-20T04:55:33;100964.25;;;12.94;66.22
61618;BME280;47518;51.776;9.370;2023-05-20T04:58:01;100969.69;;;13.02;66.37
61618;BME280;47518;51.776;9.370;2023-05-20T05:00:26;100964.53;;;13.07;65.72
61618;BME280;47518;51.776;9.370;2023-05-20T05:02:51;100958.75;;;13.02;66.07
61618;BME280;47518;51.776;9.370;2023-05-20T05:05:20;100960.75;;;13.08;66.27
61618;BME280;47518;51.776;9.370;2023-05-20T05:07:45;100956.31;;;13.15;65.72
61618;BME280;47518;51.776;9.370;2023-05-20T05:10:11;100968.91;;;13.32;65.35
61618;BME280;47518;51.776;9.370;2023-05-20T05:12:36;100961.38;;;13.34;65.11
61618;BME280;47518;51.776;9.370;2023-05-20T05:15:02;100954.09;;;13.50;64.63
61618;BME280;47518;51.776;9.370;2023-05-20T05:17:27;100958.75;;;13.72;64.49
61618;BME280;47518;51.776;9.370;2023-05-20T05:19:52;100963.97;;;13.59;64.17
61618;BME280;47518;51.776;9.370;2023-05-20T05:22:18;100965.38;;;13.78;64.38
61618;BME280;47518;51.776;9.370;2023-05-20T05:24:43;100970.53;;;13.72;63.55
61618;BME280;47518;51.776;9.370;2023-05-20T05:27:08;100970.53;;;13.95;63.40
61618;BME280;47518;51.776;9.370;2023-05-20T05:29:34;100973.56;;;14.00;63.72
61618;BME280;47518;51.776;9.370;2023-05-20T05:31:59;100982.22;;;13.89;63.97
61618;BME280;47518;51.776;9.370;2023-05-20T05:34:25;100976.25;;;13.86;63.56
61618;BME280;47518;51.776;9.370;2023-05-20T05:36:50;100971.09;;;13.91;63.85
61618;BME280;47518;51.776;9.370;2023-05-20T05:39:15;100962.47;;;14.02;63.66
61618;BME280;47518;51.776;9.370;2023-05-20T05:41:41;100955.16;;;13.94;63.94
61618;BME280;47518;51.776;9.370;2023-05-20T05:44:06;100956.63;;;14.05;63.80
61618;BME280;47518;51.776;9.370;2023-05-20T05:46:32;100956.03;;;13.95;63.79
61618;BME280;47518;51.776;9.370;2023-05-20T05:48:57;100959.44;;;14.12;63.34
61618;BME280;47518;51.776;9.370;2023-05-20T05:51:23;100961.09;;;14.21;63.57
61618;BME280;47518;51.776;9.370;2023-05-20T05:53:51;100967.09;;;14.39;62.69
61618;BME280;47518;51.776;9.370;2023-05-20T05:56:17;100958.47;;;14.50;62.28
61618;BME280;47518;51.776;9.370;2023-05-20T05:58:42;100960.03;;;14.45;62.28
61618;BME280;47518;51.776;9.370;2023-05-20T06:01:08;100962.44;;;14.77;61.77
61618;BME280;47518;51.776;9.370;2023-05-20T06:03:33;100954.72;;;14.96;61.10
61618;BME280;47518;51.776;9.370;2023-05-20T06:05:58;100964.44;;;14.98;60.69
61618;BME280;47518;51.776;9.370;2023-05-20T06:08:33;100968.84;;;15.29;60.62
61618;BME280;47518;51.776;9.370;2023-05-20T06:25:06;100962.81;;;15.18;61.26
61618;BME280;47518;51.776;9.370;2023-05-20T06:27:31;100966.31;;;15.48;59.95
61618;BME280;47518;51.776;9.370;2023-05-20T06:29:56;100957.91;;;15.65;59.49
61618;BME280;47518;51.776;9.370;2023-05-20T06:32:25;100963.53;;;15.78;58.77
61618;BME280;47518;51.776;9.370;2023-05-20T06:34:59;100952.97;;;15.75;59.02
61618;BME280;47518;51.776;9.370;2023-05-20T06:37:25;100956.88;;;15.66;59.55
61618;BME280;47518;51.776;9.370;2023-05-20T06:39:51;100950.91;;;15.62;59.28
61618;BME280;47518;51.776;9.370;2023-05-20T06:42:18;100962.88;;;15.40;59.96
61618;BME280;47518;51.776;9.370;2023-05-20T06:44:50;100957.88;;;15.29;60.37
61618;BME280;47518;51.776;9.370;2023-05-20T06:47:16;100958.00;;;15.21;61.01
61618;BME280;47518;51.776;9.370;2023-05-20T06:49:43;100952.44;;;14.99;61.66
61618;BME280;47518;51.776;9.370;2023-05-20T06:52:08;100953.00;;;15.09;61.16
61618;BME280;47518;51.776;9.370;2023-05-20T06:54:37;100945.44;;;15.11;61.52
61618;BME280;47518;51.776;9.370;2023-05-20T06:57:08;100949.38;;;15.24;61.38
61618;BME280;47518;51.776;9.370;2023-05-20T06:59:35;100945.53;;;15.18;61.56
61618;BME280;47518;51.776;9.370;2023-05-20T07:02:02;100946.38;;;15.18;61.53
61618;BME280;47518;51.776;9.370;2023-05-20T07:04:30;100940.59;;;15.28;61.22
61618;BME280;47518;51.776;9.370;2023-05-20T07:07:15;100934.16;;;15.36;61.53
61618;BME280;47518;51.776;9.370;2023-05-20T07:09:41;100940.06;;;15.39;60.83
61618;BME280;47518;51.776;9.370;2023-05-20T07:12:07;100933.63;;;15.62;61.37
61618;BME280;47518;51.776;9.370;2023-05-20T07:14:32;100929.72;;;15.71;60.70
61618;BME280;47518;51.776;9.370;2023-05-20T07:17:01;100925.34;;;15.77;60.60
61618;BME280;47518;51.776;9.370;2023-05-20T07:19:27;100923.16;;;15.87;60.36
61618;BME280;47518;51.776;9.370;2023-05-20T07:21:52;100926.13;;;16.13;60.10
61618;BME280;47518;51.776;9.370;2023-05-20T07:24:18;100916.09;;;16.27;59.35
61618;BME280;47518;51.776;9.370;2023-05-20T07:26:43;100915.69;;;16.02;59.83
61618;BME280;47518;51.776;9.370;2023-05-20T07:29:08;100908.69;;;16.21;58.84
61618;BME280;47518;51.776;9.370;2023-05-20T07:31:34;100908.06;;;16.25;58.91
61618;BME280;47518;51.776;9.370;2023-05-20T07:33:59;100905.34;;;16.32;58.70
61618;BME280;47518;51.776;9.370;2023-05-20T07:36:26;100902.72;;;16.17;58.42
61618;BME280;47518;51.776;9.370;2023-05-20T07:38:52;100902.47;;;16.12;58.72
61618;BME280;47518;51.776;9.370;2023-05-20T07:41:17;100902.69;;;16.11;58.52
61618;BME280;47518;51.776;9.370;2023-05-20T07:43:44;100904.06;;;16.00;59.59
61618;BME280;47518;51.776;9.370;2023-05-20T07:46:10;100907.03;;;16.05;59.39
61618;BME280;47518;51.776;9.370;2023-05-20T07:48:35;100912.81;;;16.10;59.95
61618;BME280;47518;51.776;9.370;2023-05-20T07:51:00;100916.38;;;16.39;58.25
61618;BME280;47518;51.776;9.370;2023-05-20T07:53:29;100913.44;;;16.40;57.72
61618;BME280;47518;51.776;9.370;2023-05-20T07:55:55;100902.53;;;16.47;57.26
61618;BME280;47518;51.776;9.370;2023-05-20T07:58:21;100904.50;;;16.31;58.45
61618;BME280;47518;51.776;9.370;2023-05-20T08:00:46;100903.38;;;16.47;57.33
61618;BME280;47518;51.776;9.370;2023-05-20T08:03:12;100907.41;;;16.51;57.71
61618;BME280;47518;51.776;9.370;2023-05-20T08:05:39;100907.53;;;16.37;57.83
61618;BME280;47518;51.776;9.370;2023-05-20T08:08:04;100907.59;;;16.50;58.21
61618;BME280;47518;51.776;9.370;2023-05-20T08:10:33;100907.47;;;16.64;57.33
61618;BME280;47518;51.776;9.370;2023-05-20T08:12:58;100898.69;;;16.69;56.42
61618;BME280;47518;51.776;9.370;2023-05-20T08:15:24;100898.00;;;16.67;56.31
61618;BME280;47518;51.776;9.370;2023-05-20T08:17:52;100895.53;;;16.72;56.58
61618;BME280;47518;51.776;9.370;2023-05-20T08:20:18;100898.59;;;16.62;56.21
61618;BME280;47518;51.776;9.370;2023-05-20T08:22:45;100894.13;;;16.83;55.93
61618;BME280;47518;51.776;9.370;2023-05-20T08:25:11;100895.81;;;16.84;56.68
61618;BME280;47518;51.776;9.370;2023-05-20T08:27:36;100894.38;;;16.95;56.29
61618;BME280;47518;51.776;9.370;2023-05-20T08:30:03;100886.38;;;17.00;55.76
61618;BME280;47518;51.776;9.370;2023-05-20T08:32:34;100886.66;;;17.25;54.76
61618;BME280;47518;51.776;9.370;2023-05-20T08:35:03;100886.31;;;17.41;54.93
61618;BME280;47518;51.776;9.370;2023-05-20T08:37:35;100883.38;;;17.56;53.80
61618;BME280;47518;51.776;9.370;2023-05-20T08:40:00;100881.06;;;17.66;53.57
61618;BME280;47518;51.776;9.370;2023-05-20T08:42:26;100867.78;;;17.76;54.45
61618;BME280;47518;51.776;9.370;2023-05-20T08:44:51;100867.53;;;17.64;53.81
61618;BME280;47518;51.776;9.370;2023-05-20T08:47:19;100869.00;;;17.67;53.41
61618;BME280;47518;51.776;9.370;2023-05-20T08:49:47;100852.56;;;17.80;52.87
61618;BME280;47518;51.776;9.370;2023-05-20T08:52:12;100869.72;;;18.08;52.56
61618;BME280;47518;51.776;9.370;2023-05-20T08:54:44;100865.88;;;18.16;52.27
61618;BME280;47518;51.776;9.370;2023-05-20T08:57:12;100873.88;;;18.71;51.51
61618;BME280;47518;51.776;9.370;2023-05-20T08:59:42;100863.59;;;18.98;50.33
61618;BME280;47518;51.776;9.370;2023-05-20T09:02:15;100865.47;;;19.42;49.06
61618;BME280;47518;51.776;9.370;2023-05-20T09:07:48;100871.91;;;19.36;48.73
61618;BME280;47518;51.776;9.370;2023-05-20T09:10:13;100852.22;;;19.26;49.99
61618;BME280;47518;51.776;9.370;2023-05-20T09:12:39;100856.97;;;19.12;49.31
61618;BME280;47518;51.776;9.370;2023-05-20T09:15:07;100857.50;;;18.89;50.11
61618;BME280;47518;51.776;9.370;2023-05-20T09:17:35;100855.53;;;18.96;50.30
61618;BME280;47518;51.776;9.370;2023-05-20T09:20:04;100859.44;;;18.62;51.49
61618;BME280;47518;51.776;9.370;2023-05-20T09:22:30;100851.00;;;18.50;52.01
61618;BME280;47518;51.776;9.370;2023-05-20T09:25:07;100860.09;;;18.57;51.68
61618;BME280;47518;51.776;9.370;2023-05-20T09:27:33;100854.78;;;18.62;51.91
61618;BME280;47518;51.776;9.370;2023-05-20T09:29:58;100864.13;;;18.48;51.85
61618;BME280;47518;51.776;9.370;2023-05-20T09:32:24;100859.28;;;18.37;52.56
61618;BME280;47518;51.776;9.370;2023-05-20T09:34:55;100869.66;;;18.28;53.23
61618;BME280;47518;51.776;9.370;2023-05-20T09:37:22;100865.22;;;18.34;52.81
61618;BME280;47518;51.776;9.370;2023-05-20T09:39:54;100855.09;;;18.21;52.96
61618;BME280;47518;51.776;9.370;2023-05-20T09:42:27;100858.06;;;18.06;53.06
61618;BME280;47518;51.776;9.370;2023-05-20T09:44:54;100860.81;;;18.20;53.11
61618;BME280;47518;51.776;9.370;2023-05-20T09:47:25;100858.88;;;18.27;52.25
61618;BME280;47518;51.776;9.370;2023-05-20T09:49:57;100858.03;;;18.26;52.37
61618;BME280;47518;51.776;9.370;2023-05-20T09:52:22;100856.75;;;18.42;51.54
61618;BME280;47518;51.776;9.370;2023-05-20T09:55:01;100847.19;;;18.51;52.06
61618;BME280;47518;51.776;9.370;2023-05-20T09:57:28;100844.59;;;18.63;51.09
61618;BME280;47518;51.776;9.370;2023-05-20T09:59:55;100845.91;;;18.67;50.36
61618;BME280;47518;51.776;9.370;2023-05-20T10:02:21;100849.94;;;18.51;51.86
61618;BME280;47518;51.776;9.370;2023-05-20T10:05:02;100859.22;;;18.63;50.74
61618;BME280;47518;51.776;9.370;2023-05-20T10:11:04;100860.09;;;18.57;50.45
61618;BME280;47518;51.776;9.370;2023-05-20T10:26:41;100862.88;;;18.44;52.09
61618;BME280;47518;51.776;9.370;2023-05-20T10:29:14;100860.72;;;18.73;51.80
61618;BME280;47518;51.776;9.370;2023-05-20T10:31:44;100864.56;;;18.45;52.08
61618;BME280;47518;51.776;9.370;2023-05-20T10:34:23;100852.97;;;18.23;52.35
61618;BME280;47518;51.776;9.370;2023-05-20T10:39:38;100848.53;;;18.16;53.09
61618;BME280;47518;51.776;9.370;2023-05-20T10:42:05;100845.34;;;18.12;53.21
61618;BME280;47518;51.776;9.370;2023-05-20T10:44:40;100845.56;;;18.11;53.08
61618;BME280;47518;51.776;9.370;2023-05-20T10:47:05;100848.09;;;18.12;52.48
61618;BME280;47518;51.776;9.370;2023-05-20T10:49:34;100843.47;;;17.99;53.40
61618;BME280;47518;51.776;9.370;2023-05-20T10:52:02;100844.75;;;17.97;53.79
61618;BME280;47518;51.776;9.370;2023-05-20T10:54:28;100841.13;;;18.10;53.33
61618;BME280;47518;51.776;9.370;2023-05-20T10:56:54;100838.38;;;18.10;53.60
61618;BME280;47518;51.776;9.370;2023-05-20T10:59:20;100839.63;;;18.27;53.07
61618;BME280;47518;51.776;9.370;2023-05-20T11:01:46;100841.13;;;18.29;52.11
61618;BME280;47518;51.776;9.370;2023-05-20T11:04:19;100841.97;;;18.23;53.32
61618;BME280;47518;51.776;9.370;2023-05-20T11:06:52;100836.25;;;18.12;53.22
61618;BME280;47518;51.776;9.370;2023-05-20T11:09:18;100831.59;;;18.19;52.99
61618;BME280;47518;51.776;9.370;2023-05-20T11:11:43;100832.22;;;18.21;53.42
61618;BME280;47518;51.776;9.370;2023-05-20T11:14:09;100822.03;;;18.34;52.96
61618;BME280;47518;51.776;9.370;2023-05-20T11:16:38;100821.38;;;18.39;52.50
61618;BME280;47518;51.776;9.370;2023-05-20T11:19:06;100810.75;;;18.49;52.24
61618;BME280;47518;51.776;9.370;2023-05-20T11:21:32;100808.63;;;18.51;52.16
61618;BME280;47518;51.776;9.370;2023-05-20T11:23:58;100786.81;;;18.70;52.01
61618;BME280;47518;51.776;9.370;2023-05-20T11:26:23;100798.19;;;18.80;51.21
61618;BME280;47518;51.776;9.370;2023-05-20T11:28:48;100794.31;;;18.94;51.22
61618;BME280;47518;51.776;9.370;2023-05-20T11:31:14;100797.69;;;18.96;51.17
61618;BME280;47518;51.776;9.370;2023-05-20T11:33:40;100798.13;;;19.00;51.75
61618;BME280;47518;51.776;9.370;2023-05-20T11:36:09;100804.94;;;18.84;51.96
61618;BME280;47518;51.776;9.370;2023-05-20T11:38:35;100802.47;;;18.62;52.24
61618;BME280;47518;51.776;9.370;2023-05-20T11:41:01;100805.50;;;18.41;52.33
61618;BME280;47518;51.776;9.370;2023-05-20T11:43:27;100805.06;;;18.44;52.81
61618;BME280;47518;51.776;9.370;2023-05-20T11:45:55;100801.00;;;18.60;52.34
61618;BME280;47518;51.776;9.370;2023-05-20T11:48:23;100805.69;;;18.46;52.06
61618;BME280;47518;51.776;9.370;2023-05-20T11:50:48;100801.25;;;18.45;52.80
61618;BME280;47518;51.776;9.370;2023-05-20T11:53:16;100809.47;;;18.52;52.09
61618;BME280;47518;51.776;9.370;2023-05-20T11:55:45;100811.34;;;18.78;51.56
61618;BME280;47518;51.776;9.370;2023-05-20T11:58:14;100793.78;;;18.72;51.91
61618;BME280;47518;51.776;9.370;2023-05-20T12:00:40;100791.25;;;18.71;51.27
61618;BME280;47518;51.776;9.370;2023-05-20T12:03:05;100781.53;;;18.55;52.35
61618;BME280;47518;51.776;9.370;2023-05-20T12:05:30;100769.06;;;18.46;52.38
61618;BME280;47518;51.776;9.370;2023-05-20T12:07:59;100773.47;;;18.67;52.27
61618;BME280;47518;51.776;9.370;2023-05-20T12:10:24;100782.38;;;18.55;52.90
61618;BME280;47518;51.776;9.370;2023-05-20T12:12:49;100781.50;;;18.61;52.53
61618;BME280;47518;51.776;9.370;2023-05-20T12:15:15;100781.59;;;18.35;53.38
61618;BME280;47518;51.776;9.370;2023-05-20T12:17:45;100776.03;;;18.48;53.49
61618;BME280;47518;51.776;9.370;2023-05-20T12:20:13;100778.34;;;18.64;52.95
61618;BME280;47518;51.776;9.370;2023-05-20T12:22:39;100767.06;;;18.73;52.27
61618;BME280;47518;51.776;9.370;2023-05-20T12:25:13;100756.09;;;18.66;53.07
61618;BME280;47518;51.776;9.370;2023-05-20T12:27:40;100765.88;;;19.00;52.43
61618;BME280;47518;51.776;9.370;2023-05-20T12:30:06;100774.03;;;18.82;52.27
61618;BME280;47518;51.776;9.370;2023-05-20T12:32:32;100763.91;;;18.76;52.20
61618;BME280;47518;51.776;9.370;2023-05-20T12:34:57;100760.31;;;18.69;52.78
61618;BME280;47518;51.776;9.370;2023-05-20T12:37:23;100754.50;;;18.90;52.39
61618;BME280;47518;51.776;9.370;2023-05-20T12:39:48;100765.38;;;18.72;52.14
61618;BME280;47518;51.776;9.370;2023-05-20T12:42:14;100760.72;;;18.72;51.78
61618;BME280;47518;51.776;9.370;2023-05-20T12:44:39;100753.91;;;18.75;52.74
61618;BME280;47518;51.776;9.370;2023-05-20T12:47:04;100754.75;;;18.82;52.42
61618;BME280;47518;51.776;9.370;2023-05-20T12:49:30;100748.88;;;18.72;52.37
61618;BME280;47518;51.776;9.370;2023-05-20T12:51:55;100754.41;;;18.65;53.00
61618;BME280;47518;51.776;9.370;2023-05-20T12:54:20;100756.53;;;18.50;53.30
61618;BME280;47518;51.776;9.370;2023-05-20T12:56:46;100758.28;;;18.37;53.18
61618;BME280;47518;51.776;9.370;2023-05-20T12:59:13;100754.50;;;18.25;54.02
61618;BME280;47518;51.776;9.370;2023-05-20T13:01:39;100757.22;;;18.38;53.92
61618;BME280;47518;51.776;9.370;2023-05-20T13:04:04;100754.25;;;18.40;53.97
61618;BME280;47518;51.776;9.370;2023-05-20T13:06:30;100738.63;;;18.27;54.21
61618;BME280;47518;51.776;9.370;2023-05-20T13:08:56;100746.66;;;18.29;54.47
61618;BME280;47518;51.776;9.370;2023-05-20T13:11:21;100739.22;;;18.43;54.18
61618;BME280;47518;51.776;9.370;2023-05-20T13:13:46;100737.09;;;18.45;53.71
61618;BME280;47518;51.776;9.370;2023-05-20T13:16:12;100734.56;;;18.43;53.45
61618;BME280;47518;51.776;9.370;2023-05-20T13:18:37;100732.03;;;18.35;53.63
61618;BME280;47518;51.776;9.370;2023-05-20T13:21:03;100730.19;;;18.22;53.84
61618;BME280;47518;51.776;9.370;2023-05-20T13:23:29;100730.81;;;18.24;54.51
61618;BME280;47518;51.776;9.370;2023-05-20T13:25:54;100724.88;;;18.27;54.84